sensor_id;sensor_type;location;lat;lon;timestamp;temperature;humidity
38237;DHT22;50101;49.438;11.098;2023-07-29T00:01:22;22.70;65.30
38237;DHT22;50101;49.438;11.098;2023-07-29T00:03:48;22.70;65.30
38237;DHT22;50101;49.438;11.098;2023-07-29T00:06:15;22.70;65.30
38237;DHT22;50101;49.438;11.098;2023-07-29T00:08:42;22.70;65.40
38237;DHT22;50101;49.438;11.098;2023-07-29T00:11:09;22.70;64.70
38237;DHT22;50101;49.438;11.098;2023-07-29T00:13:35;22.70;65.40
38237;DHT22;50101;49.438;11.098;2023-07-29T00:16:02;22.70;65.30
38237;DHT22;50101;49.438;11.098;2023-07-29T00:18:29;22.60;65.20
38237;DHT22;50101;49.438;11.098;2023-07-29T00:20:55;22.70;64.70
38237;DHT22;50101;49.438;11.098;2023-07-29T00:23:22;22.70;65.30
38237;DHT22;50101;49.438;11.098;2023-07-29T00:25:49;22.70;65.20
38237;DHT22;50101;49.438;11.098;2023-07-29T00:28:15;22.70;65.20
38237;DHT22;50101;49.438;11.098;2023-07-29T00:30:42;22.70;65.20
38237;DHT22;50101;49.438;11.098;2023-07-29T00:33:09;22.60;65.20
38237;DHT22;50101;49.438;11.098;2023-07-29T00:35:36;22.70;65.30
38237;DHT22;50101;49.438;11.098;2023-07-29T00:38:02;22.70;65.20
38237;DHT22;50101;49.438;11.098;2023-07-29T00:40:29;22.60;65.20
38237;DHT22;50101;49.438;11.098;2023-07-29T00:42:57;22.70;65.20
38237;DHT22;50101;49.438;11.098;2023-07-29T00:45:25;22.60;65.10
38237;DHT22;50101;49.438;11.098;2023-07-29T00:47:53;22.60;65.10
38237;DHT22;50101;49.438;11.098;2023-07-29T00:50:20;22.70;65.20
38237;DHT22;50101;49.438;11.098;2023-07-29T00:52:49;22.60;65.10
38237;DHT22;50101;49.438;11.098;2023-07-29T00:55:16;22.60;65.10
38237;DHT22;50101;49.438;11.098;2023-07-29T00:57:43;22.60;64.50
38237;DHT22;50101;49.438;11.098;2023-07-29T01:00:15;22.60;65.10
38237;DHT22;50101;49.438;11.098;2023-07-29T01:02:43;22.60;65.10
38237;DHT22;50101;49.438;11.098;2023-07-29T01:05:13;22.60;65.00
38237;DHT22;50101;49.438;11.098;2023-07-29T01:07:58;22.60;65.10
38237;DHT22;50101;49.438;11.098;2023-07-29T01:13:35;22.70;65.10
38237;DHT22;50101;49.438;11.098;2023-07-29T01:16:26;22.70;65.10
38237;DHT22;50101;49.438;11.098;2023-07-29T01:18:55;22.60;65.00
38237;DHT22;50101;49.438;11.098;2023-07-29T01:21:26;22.70;65.10
38237;DHT22;50101;49.438;11.098;2023-07-29T01:23:58;22.60;65.00
38237;DHT22;50101;49.438;11.098;2023-07-29T01:26:25;22.60;65.00
38237;DHT22;50101;49.438;11.098;2023-07-29T01:28:52;22.60;64.40
38237;DHT22;50101;49.438;11.098;2023-07-29T01:31:27;22.60;65.00
38237;DHT22;50101;49.438;11.098;2023-07-29T01:34:09;22.70;65.10
38237;DHT22;50101;49.438;11.098;2023-07-29T01:36:39;22.60;65.00
38237;DHT22;50101;49.438;11.098;2023-07-29T01:39:10;22.60;65.00
38237;DHT22;50101;49.438;11.098;2023-07-29T01:41:39;22.60;64.30
38237;DHT22;50101;49.438;11.098;2023-07-29T01:44:06;22.60;65.00
38237;DHT22;50101;49.438;11.098;2023-07-29T01:46:37;22.60;64.40
38237;DHT22;50101;49.438;11.098;2023-07-29T01:49:04;22.60;65.00
38237;DHT22;50101;49.438;11.098;2023-07-29T01:51:30;22.60;64.90
38237;DHT22;50101;49.438;11.098;2023-07-29T01:53:57;22.60;64.90
38237;DHT22;50101;49.438;11.098;2023-07-29T01:56:26;22.60;65.60
38237;DHT22;50101;49.438;11.098;2023-07-29T01:58:52;22.60;64.90
38237;DHT22;50101;49.438;11.098;2023-07-29T02:01:19;22.60;64.90
38237;DHT22;50101;49.438;11.098;2023-07-29T02:03:46;22.60;64.90
38237;DHT22;50101;49.438;11.098;2023-07-29T02:06:13;22.60;64.90
38237;DHT22;50101;49.438;11.098;2023-07-29T02:08:39;22.60;64.90
38237;DHT22;50101;49.438;11.098;2023-07-29T02:11:07;22.60;64.30
38237;DHT22;50101;49.438;11.098;2023-07-29T02:13:34;22.60;64.90
38237;DHT22;50101;49.438;11.098;2023-07-29T02:16:00;22.60;64.90
38237;DHT22;50101;49.438;11.098;2023-07-29T02:18:27;22.60;64.90
38237;DHT22;50101;49.438;11.098;2023-07-29T02:20:54;22.60;64.90
38237;DHT22;50101;49.438;11.098;2023-07-29T02:23:20;22.60;64.80
38237;DHT22;50101;49.438;11.098;2023-07-29T02:25:47;22.60;64.80
38237;DHT22;50101;49.438;11.098;2023-07-29T02:28:14;22.60;64.80
38237;DHT22;50101;49.438;11.098;2023-07-29T02:30:41;22.60;64.80
38237;DHT22;50101;49.438;11.098;2023-07-29T02:33:10;22.60;64.80
38237;DHT22;50101;49.438;11.098;2023-07-29T02:35:37;22.60;64.80
38237;DHT22;50101;49.438;11.098;2023-07-29T02:38:04;22.60;64.80
38237;DHT22;50101;49.438;11.098;2023-07-29T02:40:30;22.60;64.80
38237;DHT22;50101;49.438;11.098;2023-07-29T02:42:57;22.60;64.80
38237;DHT22;50101;49.438;11.098;2023-07-29T02:45:24;22.70;64.80
38237;DHT22;50101;49.438;11.098;2023-07-29T02:47:50;22.60;64.70
38237;DHT22;50101;49.438;11.098;2023-07-29T02:50:17;22.60;64.70
38237;DHT22;50101;49.438;11.098;2023-07-29T02:52:44;22.60;64.70
38237;DHT22;50101;49.438;11.098;2023-07-29T02:55:11;22.60;64.70
38237;DHT22;50101;49.438;11.098;2023-07-29T02:57:37;22.60;64.70
38237;DHT22;50101;49.438;11.098;2023-07-29T03:00:04;22.60;64.70
38237;DHT22;50101;49.438;11.098;2023-07-29T03:02:33;22.60;64.10
38237;DHT22;50101;49.438;11.098;2023-07-29T03:05:00;22.60;64.70
38237;DHT22;50101;49.438;11.098;2023-07-29T03:07:27;22.60;64.70
38237;DHT22;50101;49.438;11.098;2023-07-29T03:09:53;22.60;64.70
38237;DHT22;50101;49.438;11.098;2023-07-29T03:12:20;22.60;64.70
38237;DHT22;50101;49.438;11.098;2023-07-29T03:14:49;22.60;64.70
38237;DHT22;50101;49.438;11.098;2023-07-29T03:17:15;22.60;64.70
38237;DHT22;50101;49.438;11.098;2023-07-29T03:19:42;22.60;64.70
38237;DHT22;50101;49.438;11.098;2023-07-29T03:22:09;22.60;64.70
38237;DHT22;50101;49.438;11.098;2023-07-29T03:24:35;22.60;64.70
38237;DHT22;50101;49.438;11.098;2023-07-29T03:27:02;22.60;64.70
38237;DHT22;50101;49.438;11.098;2023-07-29T03:29:29;22.60;64.70
38237;DHT22;50101;49.438;11.098;2023-07-29T03:31:56;22.60;64.70
38237;DHT22;50101;49.438;11.098;2023-07-29T03:34:22;22.60;64.70
38237;DHT22;50101;49.438;11.098;2023-07-29T03:36:49;22.60;64.00
38237;DHT22;50101;49.438;11.098;2023-07-29T03:39:18;22.60;64.70
38237;DHT22;50101;49.438;11.098;2023-07-29T03:41:44;22.60;64.60
38237;DHT22;50101;49.438;11.098;2023-07-29T03:44:11;22.60;64.70
38237;DHT22;50101;49.438;11.098;2023-07-29T03:46:38;22.50;63.90
38237;DHT22;50101;49.438;11.098;2023-07-29T03:49:05;22.60;64.70
38237;DHT22;50101;49.438;11.098;2023-07-29T03:51:32;22.60;64.70
38237;DHT22;50101;49.438;11.098;2023-07-29T03:53:59;22.60;64.60
38237;DHT22;50101;49.438;11.098;2023-07-29T03:56:25;22.60;64.70
38237;DHT22;50101;49.438;11.098;2023-07-29T03:58:52;22.60;64.70
38237;DHT22;50101;49.438;11.098;2023-07-29T04:01:19;22.60;64.70
38237;DHT22;50101;49.438;11.098;2023-07-29T04:03:46;22.60;64.70
38237;DHT22;50101;49.438;11.098;2023-07-29T04:06:13;22.60;64.60
38237;DHT22;50101;49.438;11.098;2023-07-29T04:08:40;22.60;64.60
38237;DHT22;50101;49.438;11.098;2023-07-29T04:11:08;22.60;64.70
38237;DHT22;50101;49.438;11.098;2023-07-29T04:13:34;22.60;64.60
38237;DHT22;50101;49.438;11.098;2023-07-29T04:16:04;22.50;64.60
38237;DHT22;50101;49.438;11.098;2023-07-29T04:18:31;22.60;64.70
38237;DHT22;50101;49.438;11.098;2023-07-29T04:20:58;22.60;64.60
38237;DHT22;50101;49.438;11.098;2023-07-29T04:23:24;22.60;64.60
38237;DHT22;50101;49.438;11.098;2023-07-29T04:25:51;22.50;64.50
38237;DHT22;50101;49.438;11.098;2023-07-29T04:28:18;22.60;64.60
38237;DHT22;50101;49.438;11.098;2023-07-29T04:30:45;22.60;64.50
38237;DHT22;50101;49.438;11.098;2023-07-29T04:33:11;22.50;64.40
38237;DHT22;50101;49.438;11.098;2023-07-29T04:35:38;22.50;64.50
38237;DHT22;50101;49.438;11.098;2023-07-29T04:38:05;22.60;64.50
38237;DHT22;50101;49.438;11.098;2023-07-29T04:40:34;22.60;64.50
38237;DHT22;50101;49.438;11.098;2023-07-29T04:43:01;22.60;64.50
38237;DHT22;50101;49.438;11.098;2023-07-29T04:45:29;22.60;64.50
38237;DHT22;50101;49.438;11.098;2023-07-29T04:47:56;22.60;63.80
38237;DHT22;50101;49.438;11.098;2023-07-29T04:50:23;22.60;64.50
38237;DHT22;50101;49.438;11.098;2023-07-29T04:52:50;22.60;64.50
38237;DHT22;50101;49.438;11.098;2023-07-29T04:55:17;22.60;64.40
38237;DHT22;50101;49.438;11.098;2023-07-29T04:57:43;22.60;64.40
38237;DHT22;50101;49.438;11.098;2023-07-29T05:00:10;22.60;64.40
38237;DHT22;50101;49.438;11.098;2023-07-29T05:02:37;22.50;64.30
38237;DHT22;50101;49.438;11.098;2023-07-29T05:05:04;22.60;64.30
38237;DHT22;50101;49.438;11.098;2023-07-29T05:07:31;22.80;64.00
38237;DHT22;50101;49.438;11.098;2023-07-29T05:09:58;22.60;64.30
38237;DHT22;50101;49.438;11.098;2023-07-29T05:12:24;22.60;64.30
38237;DHT22;50101;49.438;11.098;2023-07-29T05:14:51;22.60;64.30
38237;DHT22;50101;49.438;11.098;2023-07-29T05:17:18;22.60;64.30
38237;DHT22;50101;49.438;11.098;2023-07-29T05:19:44;22.60;64.20
38237;DHT22;50101;49.438;11.098;2023-07-29T05:22:11;22.60;64.30
38237;DHT22;50101;49.438;11.098;2023-07-29T05:27:06;22.60;63.60
38237;DHT22;50101;49.438;11.098;2023-07-29T05:29:34;22.60;64.20
38237;DHT22;50101;49.438;11.098;2023-07-29T05:32:01;22.60;64.20
38237;DHT22;50101;49.438;11.098;2023-07-29T05:34:28;22.60;64.20
38237;DHT22;50101;49.438;11.098;2023-07-29T05:36:54;22.60;63.50
38237;DHT22;50101;49.438;11.098;2023-07-29T05:39:21;22.60;64.20
38237;DHT22;50101;49.438;11.098;2023-07-29T05:41:48;22.60;64.20
38237;DHT22;50101;49.438;11.098;2023-07-29T05:44:15;22.60;64.20
38237;DHT22;50101;49.438;11.098;2023-07-29T05:46:41;22.60;64.20
38237;DHT22;50101;49.438;11.098;2023-07-29T05:49:08;22.60;64.20
38237;DHT22;50101;49.438;11.098;2023-07-29T05:51:35;22.60;64.20
38237;DHT22;50101;49.438;11.098;2023-07-29T05:54:01;22.60;64.20
38237;DHT22;50101;49.438;11.098;2023-07-29T05:56:28;22.60;64.20
38237;DHT22;50101;49.438;11.098;2023-07-29T05:58:56;22.60;64.20
38237;DHT22;50101;49.438;11.098;2023-07-29T06:01:23;22.60;64.20
38237;DHT22;50101;49.438;11.098;2023-07-29T06:03:49;22.60;64.10
38237;DHT22;50101;49.438;11.098;2023-07-29T06:06:16;22.60;64.10
38237;DHT22;50101;49.438;11.098;2023-07-29T06:08:43;22.60;64.10
38237;DHT22;50101;49.438;11.098;2023-07-29T06:11:10;22.60;64.10
38237;DHT22;50101;49.438;11.098;2023-07-29T06:13:36;22.60;64.10
38237;DHT22;50101;49.438;11.098;2023-07-29T06:16:03;22.60;63.80
38237;DHT22;50101;49.438;11.098;2023-07-29T06:18:30;22.60;63.50
38237;DHT22;50101;49.438;11.098;2023-07-29T06:20:57;22.60;64.10
38237;DHT22;50101;49.438;11.098;2023-07-29T06:23:23;22.60;64.10
38237;DHT22;50101;49.438;11.098;2023-07-29T06:25:50;22.60;64.10
38237;DHT22;50101;49.438;11.098;2023-07-29T06:28:17;22.60;64.20
38237;DHT22;50101;49.438;11.098;2023-07-29T06:30:44;22.60;64.20
38237;DHT22;50101;49.438;11.098;2023-07-29T06:33:11;22.60;64.10
38237;DHT22;50101;49.438;11.098;2023-07-29T06:35:38;22.60;64.20
38237;DHT22;50101;49.438;11.098;2023-07-29T06:38:04;22.60;64.10
38237;DHT22;50101;49.438;11.098;2023-07-29T06:40:31;22.60;64.10
38237;DHT22;50101;49.438;11.098;2023-07-29T06:42:58;22.60;64.20
38237;DHT22;50101;49.438;11.098;2023-07-29T06:45:24;22.60;64.10
38237;DHT22;50101;49.438;11.098;2023-07-29T06:47:51;22.60;64.10
38237;DHT22;50101;49.438;11.098;2023-07-29T06:50:18;22.60;64.50
38237;DHT22;50101;49.438;11.098;2023-07-29T06:52:45;22.60;65.10
38237;DHT22;50101;49.438;11.098;2023-07-29T06:55:12;22.60;64.40
38237;DHT22;50101;49.438;11.098;2023-07-29T06:57:38;22.60;63.90
38237;DHT22;50101;49.438;11.098;2023-07-29T07:00:05;22.60;64.60
38237;DHT22;50101;49.438;11.098;2023-07-29T07:02:32;22.60;64.70
38237;DHT22;50101;49.438;11.098;2023-07-29T07:04:59;22.60;65.30
38237;DHT22;50101;49.438;11.098;2023-07-29T07:07:26;22.60;64.20
38237;DHT22;50101;49.438;11.098;2023-07-29T07:09:54;22.60;64.90
38237;DHT22;50101;49.438;11.098;2023-07-29T07:12:20;22.60;64.90
38237;DHT22;50101;49.438;11.098;2023-07-29T07:14:47;22.60;65.00
38237;DHT22;50101;49.438;11.098;2023-07-29T07:17:14;22.60;64.70
38237;DHT22;50101;49.438;11.098;2023-07-29T07:19:41;22.70;65.00
38237;DHT22;50101;49.438;11.098;2023-07-29T07:22:08;22.60;64.90
38237;DHT22;50101;49.438;11.098;2023-07-29T07:24:34;22.60;64.90
38237;DHT22;50101;49.438;11.098;2023-07-29T07:27:02;22.60;65.00
38237;DHT22;50101;49.438;11.098;2023-07-29T07:29:29;22.70;65.20
38237;DHT22;50101;49.438;11.098;2023-07-29T07:31:57;22.70;65.30
38237;DHT22;50101;49.438;11.098;2023-07-29T07:34:23;22.60;65.50
38237;DHT22;50101;49.438;11.098;2023-07-29T07:36:50;22.60;65.50
38237;DHT22;50101;49.438;11.098;2023-07-29T07:39:17;22.70;65.20
38237;DHT22;50101;49.438;11.098;2023-07-29T07:41:44;22.70;65.40
38237;DHT22;50101;49.438;11.098;2023-07-29T07:44:10;22.70;65.70
38237;DHT22;50101;49.438;11.098;2023-07-29T07:46:41;22.70;65.80
38237;DHT22;50101;49.438;11.098;2023-07-29T07:49:08;22.80;65.80
38237;DHT22;50101;49.438;11.098;2023-07-29T07:51:35;22.80;65.60
38237;DHT22;50101;49.438;11.098;2023-07-29T07:54:02;22.70;65.60
38237;DHT22;50101;49.438;11.098;2023-07-29T07:56:28;22.70;65.80
38237;DHT22;50101;49.438;11.098;2023-07-29T07:58:55;22.70;65.80
38237;DHT22;50101;49.438;11.098;2023-07-29T08:01:22;22.70;65.80
38237;DHT22;50101;49.438;11.098;2023-07-29T08:03:48;22.70;65.80
38237;DHT22;50101;49.438;11.098;2023-07-29T08:06:15;22.70;65.30
38237;DHT22;50101;49.438;11.098;2023-07-29T08:08:42;22.70;66.00
38237;DHT22;50101;49.438;11.098;2023-07-29T08:11:08;22.70;65.80
38237;DHT22;50101;49.438;11.098;2023-07-29T08:13:35;22.70;65.80
38237;DHT22;50101;49.438;11.098;2023-07-29T08:16:02;22.70;65.50
38237;DHT22;50101;49.438;11.098;2023-07-29T08:18:29;22.70;65.80
38237;DHT22;50101;49.438;11.098;2023-07-29T08:20:57;22.70;65.00
38237;DHT22;50101;49.438;11.098;2023-07-29T08:23:25;22.70;65.60
38237;DHT22;50101;49.438;11.098;2023-07-29T08:25:53;22.70;65.60
38237;DHT22;50101;49.438;11.098;2023-07-29T08:28:20;22.70;65.60
38237;DHT22;50101;49.438;11.098;2023-07-29T08:30:47;22.70;64.90
38237;DHT22;50101;49.438;11.098;2023-07-29T08:33:15;22.70;65.50
38237;DHT22;50101;49.438;11.098;2023-07-29T08:35:41;22.70;65.50
38237;DHT22;50101;49.438;11.098;2023-07-29T08:38:08;22.70;66.30
38237;DHT22;50101;49.438;11.098;2023-07-29T08:40:37;22.70;65.50
38237;DHT22;50101;49.438;11.098;2023-07-29T08:43:09;22.70;65.60
38237;DHT22;50101;49.438;11.098;2023-07-29T08:45:37;22.70;65.50
38237;DHT22;50101;49.438;11.098;2023-07-29T08:48:07;22.70;65.60
38237;DHT22;50101;49.438;11.098;2023-07-29T08:50:36;22.70;65.80
38237;DHT22;50101;49.438;11.098;2023-07-29T08:53:06;22.70;65.70
38237;DHT22;50101;49.438;11.098;2023-07-29T08:55:34;22.70;65.50
38237;DHT22;50101;49.438;11.098;2023-07-29T08:58:01;22.70;65.70
38237;DHT22;50101;49.438;11.098;2023-07-29T09:00:29;22.70;65.70
38237;DHT22;50101;49.438;11.098;2023-07-29T09:02:55;22.70;65.50
38237;DHT22;50101;49.438;11.098;2023-07-29T09:05:24;22.70;65.60
38237;DHT22;50101;49.438;11.098;2023-07-29T09:07:51;22.70;65.80
38237;DHT22;50101;49.438;11.098;2023-07-29T09:10:25;22.70;65.70
38237;DHT22;50101;49.438;11.098;2023-07-29T09:12:52;22.70;65.60
38237;DHT22;50101;49.438;11.098;2023-07-29T09:15:30;22.70;65.70
38237;DHT22;50101;49.438;11.098;2023-07-29T09:17:57;22.80;65.90
38237;DHT22;50101;49.438;11.098;2023-07-29T09:20:28;22.80;64.70
38237;DHT22;50101;49.438;11.098;2023-07-29T09:22:58;22.80;65.30
38237;DHT22;50101;49.438;11.098;2023-07-29T09:25:29;22.80;65.90
38237;DHT22;50101;49.438;11.098;2023-07-29T09:27:59;22.80;65.30
38237;DHT22;50101;49.438;11.098;2023-07-29T09:30:27;22.80;66.10
38237;DHT22;50101;49.438;11.098;2023-07-29T09:32:58;22.70;65.90
38237;DHT22;50101;49.438;11.098;2023-07-29T09:35:30;22.70;66.10
38237;DHT22;50101;49.438;11.098;2023-07-29T09:37:58;22.80;65.30
38237;DHT22;50101;49.438;11.098;2023-07-29T09:40:25;22.80;65.90
38237;DHT22;50101;49.438;11.098;2023-07-29T09:42:55;22.80;65.90
38237;DHT22;50101;49.438;11.098;2023-07-29T09:45:24;22.80;66.10
38237;DHT22;50101;49.438;11.098;2023-07-29T09:47:52;22.80;66.20
38237;DHT22;50101;49.438;11.098;2023-07-29T09:50:26;22.80;65.90
38237;DHT22;50101;49.438;11.098;2023-07-29T09:52:54;22.80;66.30
38237;DHT22;50101;49.438;11.098;2023-07-29T09:55:22;22.80;66.10
38237;DHT22;50101;49.438;11.098;2023-07-29T09:57:56;22.70;65.80
38237;DHT22;50101;49.438;11.098;2023-07-29T10:00:24;22.80;66.00
38237;DHT22;50101;49.438;11.098;2023-07-29T10:02:51;22.80;65.90
38237;DHT22;50101;49.438;11.098;2023-07-29T10:05:20;22.80;65.90
38237;DHT22;50101;49.438;11.098;2023-07-29T10:07:48;22.80;65.90
38237;DHT22;50101;49.438;11.098;2023-07-29T10:10:15;22.80;65.90
38237;DHT22;50101;49.438;11.098;2023-07-29T10:12:43;22.80;65.90
38237;DHT22;50101;49.438;11.098;2023-07-29T10:15:10;22.80;65.90
38237;DHT22;50101;49.438;11.098;2023-07-29T10:17:38;22.80;65.40
38237;DHT22;50101;49.438;11.098;2023-07-29T10:20:09;22.80;65.70
38237;DHT22;50101;49.438;11.098;2023-07-29T10:22:41;22.80;65.70
38237;DHT22;50101;49.438;11.098;2023-07-29T10:25:18;22.90;65.70
38237;DHT22;50101;49.438;11.098;2023-07-29T10:27:51;22.90;65.60
38237;DHT22;50101;49.438;11.098;2023-07-29T10:30:18;22.80;66.00
38237;DHT22;50101;49.438;11.098;2023-07-29T10:32:46;22.90;66.00
38237;DHT22;50101;49.438;11.098;2023-07-29T10:35:15;22.90;66.00
38237;DHT22;50101;49.438;11.098;2023-07-29T10:37:42;22.90;66.20
38237;DHT22;50101;49.438;11.098;2023-07-29T10:40:11;22.80;69.00
38237;DHT22;50101;49.438;11.098;2023-07-29T10:42:38;22.80;70.80
38237;DHT22;50101;49.438;11.098;2023-07-29T10:45:25;22.80;70.90
38237;DHT22;50101;49.438;11.098;2023-07-29T10:47:52;22.80;74.00
38237;DHT22;50101;49.438;11.098;2023-07-29T10:50:20;22.80;75.00
38237;DHT22;50101;49.438;11.098;2023-07-29T10:52:51;22.80;70.50
38237;DHT22;50101;49.438;11.098;2023-07-29T10:55:26;22.80;68.00
38237;DHT22;50101;49.438;11.098;2023-07-29T10:58:13;22.90;67.70
38237;DHT22;50101;49.438;11.098;2023-07-29T11:00:44;22.80;67.40
38237;DHT22;50101;49.438;11.098;2023-07-29T11:03:13;22.90;67.70
38237;DHT22;50101;49.438;11.098;2023-07-29T11:08:19;22.90;67.40
38237;DHT22;50101;49.438;11.098;2023-07-29T11:11:05;22.90;67.30
38237;DHT22;50101;49.438;11.098;2023-07-29T11:13:36;22.90;67.50
38237;DHT22;50101;49.438;11.098;2023-07-29T11:16:04;22.90;67.20
38237;DHT22;50101;49.438;11.098;2023-07-29T11:18:33;22.90;67.20
38237;DHT22;50101;49.438;11.098;2023-07-29T11:21:04;22.90;66.40
38237;DHT22;50101;49.438;11.098;2023-07-29T11:23:36;22.90;67.00
38237;DHT22;50101;49.438;11.098;2023-07-29T11:26:04;22.90;67.10
38237;DHT22;50101;49.438;11.098;2023-07-29T11:28:37;23.80;67.90
38237;DHT22;50101;49.438;11.098;2023-07-29T11:31:04;22.90;67.00
38237;DHT22;50101;49.438;11.098;2023-07-29T11:33:30;22.90;66.90
38237;DHT22;50101;49.438;11.098;2023-07-29T11:35:57;22.90;66.90
38237;DHT22;50101;49.438;11.098;2023-07-29T11:38:24;22.90;66.90
38237;DHT22;50101;49.438;11.098;2023-07-29T11:40:55;22.90;66.90
38237;DHT22;50101;49.438;11.098;2023-07-29T11:43:22;22.90;66.90
38237;DHT22;50101;49.438;11.098;2023-07-29T11:45:50;22.90;66.80
38237;DHT22;50101;49.438;11.098;2023-07-29T11:48:25;22.90;66.90
38237;DHT22;50101;49.438;11.098;2023-07-29T11:50:53;22.80;66.70
38237;DHT22;50101;49.438;11.098;2023-07-29T11:53:20;22.90;66.70
38237;DHT22;50101;49.438;11.098;2023-07-29T11:55:53;22.90;66.70
38237;DHT22;50101;49.438;11.098;2023-07-29T11:58:20;22.90;66.80
38237;DHT22;50101;49.438;11.098;2023-07-29T12:00:48;22.90;66.70
38237;DHT22;50101;49.438;11.098;2023-07-29T12:03:16;22.90;66.60
38237;DHT22;50101;49.438;11.098;2023-07-29T12:05:44;22.90;66.60
38237;DHT22;50101;49.438;11.098;2023-07-29T12:08:11;22.90;67.20
38237;DHT22;50101;49.438;11.098;2023-07-29T12:10:39;22.90;66.40
38237;DHT22;50101;49.438;11.098;2023-07-29T12:13:08;22.90;66.50
38237;DHT22;50101;49.438;11.098;2023-07-29T12:15:37;22.90;66.60
38237;DHT22;50101;49.438;11.098;2023-07-29T12:18:05;22.90;66.50
38237;DHT22;50101;49.438;11.098;2023-07-29T12:20:31;22.90;66.40
38237;DHT22;50101;49.438;11.098;2023-07-29T12:23:01;23.00;66.60
38237;DHT22;50101;49.438;11.098;2023-07-29T12:25:29;22.90;66.40
38237;DHT22;50101;49.438;11.098;2023-07-29T12:27:56;23.00;66.30
38237;DHT22;50101;49.438;11.098;2023-07-29T12:30:28;23.00;66.20
38237;DHT22;50101;49.438;11.098;2023-07-29T12:32:54;23.00;66.30
38237;DHT22;50101;49.438;11.098;2023-07-29T12:35:21;23.00;66.30
38237;DHT22;50101;49.438;11.098;2023-07-29T12:37:58;23.00;65.90
38237;DHT22;50101;49.438;11.098;2023-07-29T12:40:25;23.00;66.50
38237;DHT22;50101;49.438;11.098;2023-07-29T12:42:53;23.00;66.20
38237;DHT22;50101;49.438;11.098;2023-07-29T12:45:20;23.00;66.10
38237;DHT22;50101;49.438;11.098;2023-07-29T12:47:50;23.00;66.30
38237;DHT22;50101;49.438;11.098;2023-07-29T12:50:16;23.00;66.20
38237;DHT22;50101;49.438;11.098;2023-07-29T12:52:43;23.00;66.30
38237;DHT22;50101;49.438;11.098;2023-07-29T12:55:10;23.10;66.40
38237;DHT22;50101;49.438;11.098;2023-07-29T12:57:42;23.00;66.10
38237;DHT22;50101;49.438;11.098;2023-07-29T13:00:10;23.10;66.40
38237;DHT22;50101;49.438;11.098;2023-07-29T13:02:37;23.10;66.30
38237;DHT22;50101;49.438;11.098;2023-07-29T13:05:05;23.10;66.30
38237;DHT22;50101;49.438;11.098;2023-07-29T13:07:32;23.10;66.30
38237;DHT22;50101;49.438;11.098;2023-07-29T13:10:00;23.10;66.30
38237;DHT22;50101;49.438;11.098;2023-07-29T13:12:26;23.10;66.30
38237;DHT22;50101;49.438;11.098;2023-07-29T13:14:53;23.10;66.30
38237;DHT22;50101;49.438;11.098;2023-07-29T13:17:21;23.20;66.60
38237;DHT22;50101;49.438;11.098;2023-07-29T13:19:48;23.10;66.50
38237;DHT22;50101;49.438;11.098;2023-07-29T13:22:15;23.10;66.40
38237;DHT22;50101;49.438;11.098;2023-07-29T13:24:42;23.20;66.50
38237;DHT22;50101;49.438;11.098;2023-07-29T13:27:08;23.30;66.50
38237;DHT22;50101;49.438;11.098;2023-07-29T13:29:35;23.20;66.60
38237;DHT22;50101;49.438;11.098;2023-07-29T13:32:02;23.20;66.60
38237;DHT22;50101;49.438;11.098;2023-07-29T13:34:29;23.20;66.40
38237;DHT22;50101;49.438;11.098;2023-07-29T13:36:55;23.20;66.50
38237;DHT22;50101;49.438;11.098;2023-07-29T13:39:22;23.20;66.70
38237;DHT22;50101;49.438;11.098;2023-07-29T13:41:49;23.30;69.00
38237;DHT22;50101;49.438;11.098;2023-07-29T13:44:15;23.20;69.50
38237;DHT22;50101;49.438;11.098;2023-07-29T13:46:42;23.30;72.90
38237;DHT22;50101;49.438;11.098;2023-07-29T13:49:09;23.30;74.20
38237;DHT22;50101;49.438;11.098;2023-07-29T13:51:35;23.30;73.40
38237;DHT22;50101;49.438;11.098;2023-07-29T13:54:03;23.30;72.60
38237;DHT22;50101;49.438;11.098;2023-07-29T13:56:29;23.30;72.10
38237;DHT22;50101;49.438;11.098;2023-07-29T13:58:56;23.30;71.50
38237;DHT22;50101;49.438;11.098;2023-07-29T14:01:23;23.10;70.70
38237;DHT22;50101;49.438;11.098;2023-07-29T14:03:50;23.10;70.70
38237;DHT22;50101;49.438;11.098;2023-07-29T14:06:16;23.10;70.20
38237;DHT22;50101;49.438;11.098;2023-07-29T14:08:44;23.10;70.70
38237;DHT22;50101;49.438;11.098;2023-07-29T14:11:11;23.10;70.50
38237;DHT22;50101;49.438;11.098;2023-07-29T14:13:37;23.10;70.10
38237;DHT22;50101;49.438;11.098;2023-07-29T14:16:04;23.10;69.80
38237;DHT22;50101;49.438;11.098;2023-07-29T14:18:31;23.10;70.10
38237;DHT22;50101;49.438;11.098;2023-07-29T14:20:57;23.20;70.00
38237;DHT22;50101;49.438;11.098;2023-07-29T14:23:24;23.20;70.70
38237;DHT22;50101;49.438;11.098;2023-07-29T14:25:51;23.20;70.30
38237;DHT22;50101;49.438;11.098;2023-07-29T14:28:18;23.20;70.40
38237;DHT22;50101;49.438;11.098;2023-07-29T14:30:45;23.30;70.10
38237;DHT22;50101;49.438;11.098;2023-07-29T14:33:11;23.30;71.10
38237;DHT22;50101;49.438;11.098;2023-07-29T14:35:38;23.20;69.70
38237;DHT22;50101;49.438;11.098;2023-07-29T14:38:05;23.20;69.30
38237;DHT22;50101;49.438;11.098;2023-07-29T14:40:32;23.10;69.00
38237;DHT22;50101;49.438;11.098;2023-07-29T14:42:59;23.20;69.50
38237;DHT22;50101;49.438;11.098;2023-07-29T14:45:25;23.20;69.20
38237;DHT22;50101;49.438;11.098;2023-07-29T14:47:52;23.20;69.40
38237;DHT22;50101;49.438;11.098;2023-07-29T14:50:19;23.10;69.50
38237;DHT22;50101;49.438;11.098;2023-07-29T14:52:45;23.10;69.60
38237;DHT22;50101;49.438;11.098;2023-07-29T14:55:12;23.10;69.20
38237;DHT22;50101;49.438;11.098;2023-07-29T14:57:39;23.20;69.10
38237;DHT22;50101;49.438;11.098;2023-07-29T15:00:08;23.10;68.80
38237;DHT22;50101;49.438;11.098;2023-07-29T15:02:35;23.10;68.70
38237;DHT22;50101;49.438;11.098;2023-07-29T15:05:01;23.20;68.80
38237;DHT22;50101;49.438;11.098;2023-07-29T15:07:28;23.10;68.60
38237;DHT22;50101;49.438;11.098;2023-07-29T15:09:55;23.20;68.50
38237;DHT22;50101;49.438;11.098;2023-07-29T15:12:22;23.20;68.70
38237;DHT22;50101;49.438;11.098;2023-07-29T15:14:49;23.40;68.10
38237;DHT22;50101;49.438;11.098;2023-07-29T15:17:15;23.20;68.50
38237;DHT22;50101;49.438;11.098;2023-07-29T15:19:42;23.10;68.40
38237;DHT22;50101;49.438;11.098;2023-07-29T15:22:09;23.20;68.50
38237;DHT22;50101;49.438;11.098;2023-07-29T15:24:35;23.10;68.40
38237;DHT22;50101;49.438;11.098;2023-07-29T15:27:05;23.10;68.40